createdAt,value
2024-01-22T00:01:38.342Z,7.82
2024-01-22T00:04:23.878Z,14.68
2024-01-22T00:07:09.298Z,8.35
2024-01-22T00:09:54.783Z,8.60
2024-01-22T00:12:40.426Z,10.02
2024-01-22T00:15:25.820Z,10.38
2024-01-22T00:18:13.434Z,7.45
2024-01-22T00:20:58.847Z,7.72
2024-01-22T00:23:44.986Z,9.00
2024-01-22T00:26:30.574Z,9.55
2024-01-22T00:29:16.063Z,11.52
2024-01-22T00:32:01.706Z,11.27
2024-01-22T00:34:47.165Z,9.77
2024-01-22T00:37:32.645Z,8.98
2024-01-22T00:40:18.369Z,9.68
2024-01-22T00:43:03.749Z,9.60
2024-01-22T00:45:50.846Z,5.72
2024-01-22T00:48:36.462Z,11.27
2024-01-22T00:51:22.125Z,7.22
2024-01-22T00:54:07.747Z,6.00
2024-01-22T00:56:54.945Z,9.85
2024-01-22T00:59:40.492Z,9.55
2024-01-22T01:02:26.593Z,10.40
2024-01-22T01:05:12.169Z,6.50
2024-01-22T01:07:57.624Z,7.05
2024-01-22T01:10:43.397Z,11.40
2024-01-22T01:13:28.942Z,11.88
2024-01-22T01:16:14.272Z,8.13
2024-01-22T01:18:59.798Z,6.55
2024-01-22T01:21:45.188Z,7.88
2024-01-22T01:24:31.105Z,9.70
2024-01-22T01:27:18.903Z,7.70
2024-01-22T01:30:05.269Z,9.25
2024-01-22T01:32:51.022Z,6.47
2024-01-22T01:35:36.599Z,5.63
2024-01-22T01:38:22.116Z,4.05
2024-01-22T01:41:07.777Z,7.88
2024-01-22T01:43:53.125Z,7.25
2024-01-22T01:46:38.792Z,6.65
2024-01-22T01:49:24.480Z,8.52
2024-01-22T01:52:11.929Z,7.10
2024-01-22T01:54:58.543Z,4.75
2024-01-22T01:57:48.131Z,6.03
2024-01-22T02:00:36.261Z,5.50
2024-01-22T02:03:22.201Z,3.60
2024-01-22T02:06:07.791Z,4.93
2024-01-22T02:08:53.902Z,5.85
2024-01-22T02:11:39.929Z,5.32
2024-01-22T02:14:25.747Z,5.85
2024-01-22T02:17:11.288Z,4.57
2024-01-22T02:19:56.568Z,4.45
2024-01-22T02:22:41.931Z,5.60
2024-01-22T02:25:27.549Z,7.03
2024-01-22T02:28:13.073Z,6.63
2024-01-22T02:30:58.563Z,8.05
2024-01-22T02:33:44.132Z,5.82
2024-01-22T02:36:31.115Z,5.57
2024-01-22T02:39:17.565Z,5.10
2024-01-22T02:42:03.450Z,5.57
2024-01-22T02:44:49.193Z,5.10
2024-01-22T02:47:36.187Z,3.15
2024-01-22T02:50:21.999Z,3.70
2024-01-22T02:53:07.572Z,5.57
2024-01-22T02:55:52.966Z,2.22
2024-01-22T02:58:38.218Z,3.03
2024-01-22T03:01:23.922Z,2.75
2024-01-22T03:04:09.458Z,2.88
2024-01-22T03:06:56.280Z,3.85
2024-01-22T03:09:41.777Z,3.47
2024-01-22T03:12:27.428Z,2.35
2024-01-22T03:15:13.134Z,4.35
2024-01-22T03:17:59.088Z,2.15
2024-01-22T03:20:44.811Z,3.17
2024-01-22T03:23:30.432Z,2.83
2024-01-22T03:26:20.756Z,2.80
2024-01-22T03:29:06.147Z,3.05
2024-01-22T03:31:51.645Z,5.35
2024-01-22T03:34:37.199Z,1.88
2024-01-22T03:37:23.073Z,2.33
2024-01-22T03:40:09.218Z,4.55
2024-01-22T03:42:54.691Z,1.73
2024-01-22T03:45:40.353Z,2.65
2024-01-22T03:48:25.954Z,2.67
2024-01-22T03:51:11.668Z,3.25
2024-01-22T03:53:57.422Z,2.65
2024-01-22T03:56:43.532Z,1.88
2024-01-22T03:59:29.077Z,3.63
2024-01-22T04:02:14.774Z,2.67
2024-01-22T04:05:00.183Z,2.00
2024-01-22T04:07:45.379Z,4.47
2024-01-22T04:10:31.031Z,5.85
2024-01-22T04:13:16.741Z,3.55
2024-01-22T04:16:02.096Z,1.60
2024-01-22T04:18:47.656Z,3.92
2024-01-22T04:21:36.060Z,3.33
2024-01-22T04:24:21.785Z,2.95
2024-01-22T04:27:07.618Z,3.90
2024-01-22T04:29:52.961Z,1.33
2024-01-22T04:32:38.872Z,3.42
2024-01-22T04:35:24.716Z,2.17
2024-01-22T04:38:10.354Z,3.40
2024-01-22T04:40:55.631Z,2.38
2024-01-22T04:43:44.161Z,3.38
2024-01-22T04:46:29.860Z,3.33
2024-01-22T04:49:15.647Z,1.95
2024-01-22T04:52:02.197Z,3.35
2024-01-22T04:54:49.035Z,2.08
2024-01-22T04:57:34.371Z,2.78
2024-01-22T05:00:20.355Z,4.50
2024-01-22T05:03:06.722Z,4.97
2024-01-22T05:05:52.533Z,3.33
2024-01-22T05:08:39.535Z,3.15
2024-01-22T05:11:25.503Z,2.75
2024-01-22T05:14:11.692Z,4.82
2024-01-22T05:16:57.015Z,5.00
2024-01-22T05:19:42.550Z,2.10
2024-01-22T05:22:28.001Z,3.90
2024-01-22T05:25:13.806Z,2.45
2024-01-22T05:27:59.260Z,4.75
2024-01-22T05:30:44.525Z,7.30
2024-01-22T05:33:30.258Z,7.35
2024-01-22T05:36:15.540Z,6.00
2024-01-22T05:39:01.216Z,7.72
2024-01-22T05:41:46.774Z,12.15
2024-01-22T05:44:32.692Z,12.73
2024-01-22T05:47:18.283Z,7.65
2024-01-22T05:50:04.057Z,8.13
2024-01-22T05:52:49.455Z,5.72
2024-01-22T05:55:35.921Z,10.98
2024-01-22T05:58:21.579Z,9.35
2024-01-22T06:01:06.943Z,11.43
2024-01-22T06:03:52.862Z,13.48
2024-01-22T06:06:38.867Z,14.68
2024-01-22T06:09:24.592Z,22.52
2024-01-22T06:12:10.009Z,20.95
2024-01-22T06:14:55.604Z,22.90
2024-01-22T06:17:41.446Z,24.08
2024-01-22T06:20:26.768Z,31.35
2024-01-22T06:23:12.347Z,15.20
2024-01-22T06:25:58.075Z,20.15
2024-01-22T06:28:43.470Z,20.05
2024-01-22T06:31:28.862Z,17.20
2024-01-22T06:34:14.656Z,13.82
2024-01-22T06:37:00.045Z,11.32
2024-01-22T06:39:45.765Z,16.92
2024-01-22T06:42:37.656Z,16.90
2024-01-22T06:45:25.042Z,20.95
2024-01-22T06:48:10.308Z,25.25
2024-01-22T06:50:55.766Z,23.10
2024-01-22T06:53:41.719Z,30.70
2024-01-22T06:56:27.352Z,26.95
2024-01-22T06:59:12.841Z,42.28
2024-01-22T07:01:58.253Z,46.08
2024-01-22T07:04:46.637Z,46.83
2024-01-22T07:07:33.184Z,46.50
2024-01-22T07:10:18.372Z,54.08
2024-01-22T07:13:04.561Z,55.78
2024-01-22T07:15:49.877Z,64.30
2024-01-22T07:18:35.538Z,56.55
2024-01-22T07:21:21.114Z,44.50
2024-01-22T07:24:06.995Z,54.55
2024-01-22T07:26:52.497Z,44.67
2024-01-22T07:29:38.320Z,43.25
2024-01-22T07:32:24.122Z,49.13
2024-01-22T07:35:14.587Z,50.38
2024-01-22T07:38:00.962Z,39.05
2024-01-22T07:40:47.595Z,36.45
2024-01-22T07:43:34.236Z,40.08
2024-01-22T07:46:19.674Z,51.60
2024-01-22T07:49:05.232Z,48.15
2024-01-22T07:51:50.632Z,54.85
2024-01-22T07:54:36.269Z,41.83
2024-01-22T07:57:22.567Z,41.83
2024-01-22T08:00:12.599Z,40.65
2024-01-22T08:02:58.350Z,38.75
2024-01-22T08:05:43.959Z,42.00
2024-01-22T08:08:29.616Z,37.95
2024-01-22T08:11:15.638Z,49.90
2024-01-22T08:14:01.504Z,45.65
2024-01-22T08:16:47.407Z,51.65
2024-01-22T08:19:35.006Z,57.38
2024-01-22T08:22:20.361Z,54.80
2024-01-22T08:25:06.730Z,40.35
2024-01-22T08:27:52.046Z,45.47
2024-01-22T08:30:37.573Z,56.63
2024-01-22T08:33:23.296Z,38.97
2024-01-22T08:36:08.647Z,43.95
2024-01-22T08:38:54.413Z,49.95
2024-01-22T08:41:39.909Z,46.90
2024-01-22T08:44:26.017Z,55.35
2024-01-22T08:47:11.463Z,44.72
2024-01-22T08:49:56.808Z,68.15
2024-01-22T08:52:48.883Z,46.50
2024-01-22T08:55:34.372Z,49.75
2024-01-22T08:58:19.984Z,46.95
2024-01-22T09:01:08.436Z,46.58
2024-01-22T09:03:55.528Z,51.90
2024-01-22T09:06:40.841Z,50.85
2024-01-22T09:09:26.677Z,55.97
2024-01-22T09:12:12.619Z,45.33
2024-01-22T09:14:57.947Z,40.47
2024-01-22T09:17:43.439Z,42.45
2024-01-22T09:20:29.113Z,48.50
2024-01-22T09:23:14.567Z,40.92
2024-01-22T09:26:02.487Z,40.80
2024-01-22T09:28:49.294Z,43.05
2024-01-22T09:31:35.801Z,48.15
2024-01-22T09:34:21.554Z,45.75
2024-01-22T09:37:07.225Z,31.33
2024-01-22T09:39:52.573Z,29.48
2024-01-22T09:42:40.398Z,36.92
2024-01-22T09:45:26.158Z,37.47
2024-01-22T09:48:11.946Z,29.02
2024-01-22T09:50:57.377Z,31.85
2024-01-22T09:53:47.893Z,40.08
2024-01-22T09:56:35.498Z,27.92
2024-01-22T09:59:26.189Z,28.48
2024-01-22T10:02:17.243Z,29.65
2024-01-22T10:05:05.931Z,30.05
2024-01-22T10:07:51.711Z,42.38
2024-01-22T10:10:38.910Z,24.98
2024-01-22T10:13:24.805Z,32.67
2024-01-22T10:16:11.592Z,28.00
2024-01-22T10:18:59.660Z,31.50
2024-01-22T10:21:45.061Z,33.40
2024-01-22T10:24:31.808Z,36.95
2024-01-22T10:27:17.611Z,29.25
2024-01-22T10:30:15.438Z,33.65
2024-01-22T10:33:15.768Z,39.47
2024-01-22T10:36:17.820Z,31.33
2024-01-22T10:39:05.626Z,35.38
2024-01-22T10:41:51.075Z,41.40
2024-01-22T10:44:38.716Z,39.25
2024-01-22T10:47:24.287Z,30.10
2024-01-22T10:50:10.824Z,35.47
2024-01-22T10:52:57.517Z,35.28
2024-01-22T10:55:53.891Z,40.50
2024-01-22T10:58:44.680Z,37.50
2024-01-22T11:01:31.120Z,30.90
2024-01-22T11:04:23.617Z,33.97
2024-01-22T11:07:11.547Z,36.70
2024-01-22T11:09:59.940Z,40.92
2024-01-22T11:12:50.386Z,28.45
2024-01-22T11:15:39.030Z,34.15
2024-01-22T11:18:24.774Z,36.22
2024-01-22T11:21:19.878Z,33.17
2024-01-22T11:24:06.870Z,36.45
2024-01-22T11:26:55.131Z,27.98
2024-01-22T11:29:41.022Z,27.15
2024-01-22T11:32:31.252Z,27.95
2024-01-22T11:35:33.468Z,36.28
2024-01-22T11:38:52.569Z,31.65
2024-01-22T11:41:41.463Z,27.13
2024-01-22T11:44:29.063Z,33.83
2024-01-22T11:47:15.078Z,28.98
2024-01-22T11:50:04.054Z,24.98
2024-01-22T11:52:50.150Z,26.50
2024-01-22T11:55:36.077Z,26.95
2024-01-22T11:58:22.018Z,22.50
2024-01-22T12:01:12.403Z,28.63
2024-01-22T12:04:17.115Z,20.65
2024-01-22T12:07:04.094Z,26.00
2024-01-22T12:09:49.350Z,18.52
2024-01-22T12:12:36.296Z,19.33
2024-01-22T12:15:23.248Z,23.65
2024-01-22T12:18:08.916Z,20.15
2024-01-22T12:20:54.285Z,25.67
2024-01-22T12:23:41.235Z,23.13
2024-01-22T12:26:26.761Z,21.77
2024-01-22T12:29:25.776Z,26.88
2024-01-22T12:32:12.231Z,26.80
2024-01-22T12:35:01.538Z,22.67
2024-01-22T12:37:47.103Z,23.30
2024-01-22T12:40:32.801Z,16.67
2024-01-22T12:43:18.467Z,22.98
2024-01-22T12:46:11.814Z,22.20
2024-01-22T12:48:58.152Z,22.20
2024-01-22T12:51:44.996Z,28.45
2024-01-22T12:54:31.710Z,28.67
2024-01-22T12:57:17.436Z,25.58
2024-01-22T13:00:06.151Z,21.80
2024-01-22T13:02:51.594Z,32.47
2024-01-22T13:05:38.523Z,26.65
2024-01-22T13:08:24.797Z,25.30
2024-01-22T13:11:10.165Z,20.85
2024-01-22T13:13:55.917Z,23.30
2024-01-22T13:16:41.131Z,30.83
2024-01-22T13:19:26.732Z,30.58
2024-01-22T13:22:13.316Z,30.48
2024-01-22T13:24:58.714Z,28.52
2024-01-22T13:27:44.302Z,23.08
2024-01-22T13:30:29.988Z,21.45
2024-01-22T13:33:15.424Z,32.20
2024-01-22T13:36:04.627Z,30.42
2024-01-22T13:38:50.618Z,23.45
2024-01-22T13:41:36.828Z,26.98
2024-01-22T13:44:22.538Z,24.55
2024-01-22T13:47:17.357Z,32.20
2024-01-22T13:50:11.343Z,22.02
2024-01-22T13:52:57.755Z,31.75
2024-01-22T13:55:44.781Z,17.77
2024-01-22T13:58:30.315Z,26.27
2024-01-22T14:01:16.022Z,23.33
2024-01-22T14:04:01.494Z,20.13
2024-01-22T14:06:46.831Z,19.75
2024-01-22T14:09:32.395Z,28.95
2024-01-22T14:12:18.072Z,23.45
2024-01-22T14:15:04.011Z,21.77
2024-01-22T14:17:49.547Z,19.25
2024-01-22T14:20:35.142Z,18.00
2024-01-22T14:23:20.688Z,20.33
2024-01-22T14:26:08.454Z,24.90
2024-01-22T14:28:54.087Z,28.17
2024-01-22T14:31:39.431Z,22.80
2024-01-22T14:34:24.943Z,23.67
2024-01-22T14:37:10.930Z,24.88
2024-01-22T14:39:57.090Z,28.83
2024-01-22T14:42:43.170Z,23.65
2024-01-22T14:45:29.129Z,24.23
2024-01-22T14:48:17.881Z,25.48
2024-01-22T14:51:04.286Z,28.17
2024-01-22T14:53:49.490Z,27.95
2024-01-22T14:56:37.805Z,31.33
2024-01-22T14:59:23.179Z,23.73
2024-01-22T15:02:08.720Z,24.77
2024-01-22T15:04:54.096Z,25.83
2024-01-22T15:07:39.956Z,28.92
2024-01-22T15:10:25.912Z,31.15
2024-01-22T15:13:11.515Z,33.25
2024-01-22T15:15:56.962Z,26.25
2024-01-22T15:18:45.787Z,29.35
2024-01-22T15:21:33.312Z,28.00
2024-01-22T15:24:19.218Z,29.98
2024-01-22T15:27:05.165Z,35.08
2024-01-22T15:29:50.771Z,29.92
2024-01-22T15:32:36.776Z,31.60
2024-01-22T15:35:22.938Z,28.63
2024-01-22T15:38:14.406Z,22.48
2024-01-22T15:41:00.026Z,23.95
2024-01-22T15:43:45.627Z,25.05
2024-01-22T15:46:31.700Z,26.00
2024-01-22T15:49:18.016Z,27.25
2024-01-22T15:52:04.419Z,24.52
2024-01-22T15:54:49.829Z,27.48
2024-01-22T15:57:35.421Z,32.05
2024-01-22T16:00:21.736Z,26.40
2024-01-22T16:03:07.457Z,29.63
2024-01-22T16:05:54.532Z,23.67
2024-01-22T16:08:42.046Z,37.10
2024-01-22T16:11:27.372Z,25.95
2024-01-22T16:14:13.722Z,28.50
2024-01-22T16:16:59.357Z,33.55
2024-01-22T16:19:46.008Z,27.92
2024-01-22T16:22:31.947Z,29.42
2024-01-22T16:25:19.593Z,27.35
2024-01-22T16:28:07.718Z,41.83
2024-01-22T16:30:53.079Z,24.73
2024-01-22T16:33:38.848Z,33.00
2024-01-22T16:36:27.317Z,35.53
2024-01-22T16:39:14.831Z,33.30
2024-01-22T16:42:00.516Z,31.05
2024-01-22T16:44:46.429Z,37.35
2024-01-22T16:47:31.923Z,23.33
2024-01-22T16:50:17.342Z,30.25
2024-01-22T16:53:05.548Z,31.40
2024-01-22T16:55:51.073Z,26.38
2024-01-22T16:58:36.277Z,34.65
2024-01-22T17:01:24.508Z,29.25
2024-01-22T17:04:09.622Z,31.17
2024-01-22T17:07:08.339Z,26.52
2024-01-22T17:09:53.932Z,33.85
2024-01-22T17:12:40.498Z,31.45
2024-01-22T17:15:29.703Z,35.20
2024-01-22T17:18:15.886Z,27.48
2024-01-22T17:21:01.694Z,37.38
2024-01-22T17:23:48.290Z,32.80
2024-01-22T17:26:34.933Z,33.70
2024-01-22T17:29:20.747Z,29.85
2024-01-22T17:32:07.747Z,41.63
2024-01-22T17:34:53.517Z,33.65
2024-01-22T17:37:39.228Z,31.08
2024-01-22T17:40:25.369Z,35.88
2024-01-22T17:43:11.535Z,29.42
2024-01-22T17:45:57.622Z,38.08
2024-01-22T17:48:43.519Z,31.10
2024-01-22T17:51:29.215Z,26.13
2024-01-22T17:54:14.920Z,34.00
2024-01-22T17:57:00.565Z,24.63
2024-01-22T17:59:47.134Z,26.05
2024-01-22T18:02:32.802Z,30.08
2024-01-22T18:05:18.269Z,30.58
2024-01-22T18:08:04.263Z,22.35
2024-01-22T18:10:53.065Z,41.30
2024-01-22T18:13:38.746Z,33.85
2024-01-22T18:16:24.375Z,31.38
2024-01-22T18:19:10.178Z,35.08
2024-01-22T18:21:55.787Z,29.60
2024-01-22T18:24:41.691Z,22.55
2024-01-22T18:27:27.172Z,28.23
2024-01-22T18:30:13.129Z,37.47
2024-01-22T18:32:58.712Z,27.17
2024-01-22T18:35:45.035Z,27.40
2024-01-22T18:38:30.381Z,25.85
2024-01-22T18:41:42.795Z,29.48
2024-01-22T18:44:28.291Z,36.47
2024-01-22T18:47:13.911Z,29.95
2024-01-22T18:49:59.575Z,26.65
2024-01-22T18:52:46.396Z,26.17
2024-01-22T18:55:35.668Z,18.58
2024-01-22T18:58:20.924Z,33.97
2024-01-22T19:01:07.418Z,27.70
2024-01-22T19:03:53.111Z,32.75
2024-01-22T19:06:39.712Z,37.78
2024-01-22T19:09:25.064Z,31.15
2024-01-22T19:12:11.033Z,36.72
2024-01-22T19:14:56.339Z,34.63
2024-01-22T19:17:41.596Z,33.95
2024-01-22T19:20:28.525Z,34.58
2024-01-22T19:23:17.459Z,32.58
2024-01-22T19:26:03.400Z,45.60
2024-01-22T19:28:49.164Z,31.52
2024-01-22T19:31:34.449Z,29.20
2024-01-22T19:34:20.104Z,33.38
2024-01-22T19:37:06.193Z,32.58
2024-01-22T19:39:51.656Z,27.25
2024-01-22T19:42:37.873Z,30.33
2024-01-22T19:45:23.390Z,26.02
2024-01-22T19:48:09.011Z,34.42
2024-01-22T19:50:57.951Z,28.58
2024-01-22T19:53:43.565Z,31.38
2024-01-22T19:56:29.122Z,28.05
2024-01-22T19:59:15.076Z,24.80
2024-01-22T20:02:01.029Z,29.88
2024-01-22T20:04:46.790Z,27.17
2024-01-22T20:07:32.962Z,35.13
2024-01-22T20:10:21.286Z,24.50
2024-01-22T20:13:08.104Z,24.63
2024-01-22T20:15:53.462Z,31.15
2024-01-22T20:18:41.222Z,33.42
2024-01-22T20:21:27.072Z,40.78
2024-01-22T20:24:15.913Z,24.40
2024-01-22T20:27:01.767Z,27.20
2024-01-22T20:29:47.027Z,32.47
2024-01-22T20:32:32.766Z,30.35
2024-01-22T20:35:18.508Z,26.63
2024-01-22T20:38:04.891Z,30.35
2024-01-22T20:40:50.393Z,31.35
2024-01-22T20:43:38.742Z,31.50
2024-01-22T20:46:24.667Z,23.90
2024-01-22T20:49:10.525Z,28.17
2024-01-22T20:51:56.136Z,26.25
2024-01-22T20:54:42.651Z,36.65
2024-01-22T20:57:29.084Z,27.67
2024-01-22T21:00:17.015Z,35.83
2024-01-22T21:03:02.731Z,33.10
2024-01-22T21:05:48.655Z,32.53
2024-01-22T21:08:38.042Z,38.38
2024-01-22T21:11:24.554Z,27.95
2024-01-22T21:14:10.035Z,32.55
2024-01-22T21:16:56.467Z,28.67
2024-01-22T21:19:41.956Z,32.13
2024-01-22T21:22:27.762Z,31.90
2024-01-22T21:25:13.741Z,37.03
2024-01-22T21:27:59.573Z,30.00
2024-01-22T21:30:45.646Z,33.35
2024-01-22T21:33:31.304Z,22.55
2024-01-22T21:36:17.174Z,28.55
2024-01-22T21:39:02.581Z,28.58
2024-01-22T21:41:48.243Z,21.75
2024-01-22T21:44:33.764Z,27.33
2024-01-22T21:47:20.521Z,25.52
2024-01-22T21:50:06.210Z,28.20
2024-01-22T21:52:51.869Z,24.45
2024-01-22T21:55:37.560Z,30.52
2024-01-22T21:58:23.422Z,26.77
2024-01-22T22:01:09.249Z,19.95
2024-01-22T22:03:54.974Z,20.10
2024-01-22T22:06:43.078Z,29.08
2024-01-22T22:09:29.389Z,23.00
2024-01-22T22:12:15.348Z,25.52
2024-01-22T22:15:01.006Z,21.70
2024-01-22T22:17:48.069Z,23.13
2024-01-22T22:20:34.400Z,25.23
2024-01-22T22:23:20.722Z,24.45
2024-01-22T22:26:05.979Z,22.80
2024-01-22T22:28:51.594Z,20.52
2024-01-22T22:31:38.254Z,27.65
2024-01-22T22:34:23.610Z,19.83
2024-01-22T22:37:09.364Z,22.00
2024-01-22T22:39:54.598Z,13.40
2024-01-22T22:42:40.165Z,19.60
2024-01-22T22:45:26.155Z,16.05
2024-01-22T22:48:11.985Z,12.35
2024-01-22T22:50:57.716Z,14.88
2024-01-22T22:53:43.251Z,15.88
2024-01-22T22:56:28.657Z,9.57
2024-01-22T22:59:14.330Z,14.77
2024-01-22T23:01:59.738Z,20.95
2024-01-22T23:04:45.947Z,12.18
2024-01-22T23:07:31.950Z,17.80
2024-01-22T23:10:17.384Z,21.92
2024-01-22T23:13:02.946Z,18.92
2024-01-22T23:15:48.408Z,19.52
2024-01-22T23:18:34.013Z,28.35
2024-01-22T23:21:19.635Z,32.35
2024-01-22T23:24:05.839Z,21.60
2024-01-22T23:26:51.446Z,22.77
2024-01-22T23:29:38.474Z,20.60
2024-01-22T23:32:24.217Z,24.90
2024-01-22T23:35:09.832Z,28.55
2024-01-22T23:38:00.057Z,24.48
2024-01-22T23:40:45.528Z,27.85
2024-01-22T23:43:31.264Z,18.88
2024-01-22T23:46:20.624Z,28.85
2024-01-22T23:49:06.150Z,30.08
2024-01-22T23:51:53.692Z,20.60
2024-01-22T23:54:40.009Z,24.95
2024-01-22T23:57:26.193Z,28.77
